Time;durP1;ratioP1;P1;durP2;ratioP2;P2;SDS_P1;SDS_P2;PMS_P1;PMS_P2;Temp;Humidity;BMP_temperature;BMP_pressure;BME280_temperature;BME280_humidity;BME280_pressure;Samples;Min_cycle;Max_cycle;Signal;HPM_P1;HPM_P2
2021/01/21 00:01:42;;;;;;;23.27;16.50;;;4.40;96.70;;;;;;5109744;28;20216;-79
2021/01/21 00:04:08;;;;;;;19.70;15.50;;;4.30;96.80;;;;;;5107700;28;20646;-79
2021/01/21 00:06:34;;;;;;;21.13;16.63;;;4.40;96.80;;;;;;5110007;28;20595;-79
2021/01/21 00:09:00;;;;;;;20.38;15.90;;;4.40;96.70;;;;;;5109892;28;20172;-79
2021/01/21 00:11:26;;;;;;;22.83;15.98;;;4.40;96.70;;;;;;5109454;28;20204;-79
2021/01/21 00:13:52;;;;;;;21.43;16.20;;;4.30;96.90;;;;;;5106343;28;20282;-79
2021/01/21 00:16:17;;;;;;;21.40;18.27;;;4.10;97.20;;;;;;5108666;28;20175;-78
2021/01/21 00:18:43;;;;;;;22.93;17.33;;;4.00;97.20;;;;;;5109621;28;20268;-79
2021/01/21 00:21:09;;;;;;;24.73;16.43;;;4.00;97.10;;;;;;5107357;28;20209;-79
2021/01/21 00:23:35;;;;;;;21.60;18.33;;;4.00;97.30;;;;;;5109504;28;20175;-79
2021/01/21 00:26:00;;;;;;;22.03;16.53;;;3.90;97.40;;;;;;5108527;28;20176;-79
2021/01/21 00:28:26;;;;;;;25.93;19.13;;;3.90;97.50;;;;;;5108466;28;20915;-79
2021/01/21 00:30:52;;;;;;;19.90;16.33;;;3.70;97.90;;;;;;5107341;28;20184;-80
2021/01/21 00:33:18;;;;;;;22.43;19.20;;;3.60;98.10;;;;;;5109260;28;20631;-79
2021/01/21 00:35:44;;;;;;;23.90;19.77;;;3.50;98.10;;;;;;5109189;28;20420;-79
2021/01/21 00:38:10;;;;;;;24.70;19.97;;;3.60;98.00;;;;;;5108202;28;20207;-79
2021/01/21 00:40:35;;;;;;;24.73;18.67;;;3.50;98.10;;;;;;5109629;28;20191;-79
2021/01/21 00:43:01;;;;;;;22.77;18.10;;;3.50;98.20;;;;;;5108362;28;20408;-79
2021/01/21 00:45:27;;;;;;;24.33;19.60;;;3.40;98.40;;;;;;5107315;28;20172;-79
2021/01/21 00:47:53;;;;;;;22.90;19.00;;;3.40;98.50;;;;;;5106238;28;20272;-79
2021/01/21 00:50:18;;;;;;;21.30;17.77;;;3.30;98.50;;;;;;5108629;28;20318;-80
2021/01/21 00:52:44;;;;;;;24.00;18.87;;;3.10;99.10;;;;;;5107961;28;20397;-79
2021/01/21 00:55:11;;;;;;;24.87;17.77;;;3.10;99.10;;;;;;5107886;28;20227;-80
2021/01/21 00:57:36;;;;;;;28.00;19.33;;;3.20;99.00;;;;;;5107444;28;20200;-79
2021/01/21 01:00:09;;;;;;;20.17;18.00;;;3.10;98.80;;;;;;5107653;28;20179;-79
2021/01/21 01:02:35;;;;;;;23.73;19.63;;;3.10;98.80;;;;;;5106569;28;20167;-79
2021/01/21 01:05:01;;;;;;;25.47;19.70;;;3.10;98.70;;;;;;5107488;28;20346;-79
2021/01/21 01:07:27;;;;;;;24.47;19.43;;;3.20;98.70;;;;;;5108106;28;20172;-79
2021/01/21 01:09:52;;;;;;;24.40;19.63;;;3.10;98.90;;;;;;5107059;28;20184;-79
2021/01/21 01:12:18;;;;;;;26.30;22.57;;;3.00;99.00;;;;;;5107523;28;20179;-79
2021/01/21 01:14:44;;;;;;;25.93;22.57;;;3.10;98.70;;;;;;5107198;28;20236;-79
2021/01/21 01:17:10;;;;;;;31.83;24.05;;;3.20;98.60;;;;;;5107437;28;20601;-79
2021/01/21 01:19:37;;;;;;;33.40;25.30;;;3.10;98.80;;;;;;5107807;28;20172;-79
2021/01/21 01:22:02;;;;;;;33.40;24.92;;;3.10;98.80;;;;;;5107506;28;20191;-79
2021/01/21 01:24:28;;;;;;;30.67;23.63;;;3.10;98.80;;;;;;5106869;28;20264;-79
2021/01/21 01:26:53;;;;;;;34.37;24.40;;;3.00;99.00;;;;;;5107356;28;20172;-80
2021/01/21 01:29:19;;;;;;;33.00;24.30;;;3.00;99.20;;;;;;5107831;28;20176;-80
2021/01/21 01:31:45;;;;;;;33.60;25.33;;;3.00;99.20;;;;;;5107354;28;20176;-79
2021/01/21 01:34:11;;;;;;;39.93;28.53;;;2.90;99.20;;;;;;5106764;28;20218;-79
2021/01/21 01:36:36;;;;;;;35.37;27.63;;;3.00;99.20;;;;;;5106883;28;20387;-79
2021/01/21 01:39:03;;;;;;;37.90;27.13;;;3.10;99.20;;;;;;5106360;28;20705;-79
2021/01/21 01:41:29;;;;;;;39.65;28.13;;;3.10;99.00;;;;;;5107367;28;20298;-79
2021/01/21 01:43:55;;;;;;;38.92;29.73;;;3.10;98.80;;;;;;5107613;28;20228;-79
2021/01/21 01:46:22;;;;;;;39.60;26.30;;;3.10;99.00;;;;;;5107037;28;20183;-79
2021/01/21 01:48:48;;;;;;;35.72;28.10;;;3.10;99.00;;;;;;5108081;28;20604;-79
2021/01/21 01:51:14;;;;;;;41.57;29.27;;;3.20;98.90;;;;;;5107477;28;20175;-79
2021/01/21 01:53:39;;;;;;;40.07;25.53;;;3.20;98.80;;;;;;5107283;28;20813;-80
2021/01/21 01:56:05;;;;;;;39.60;29.27;;;3.20;98.90;;;;;;5107128;28;20698;-79
2021/01/21 01:58:32;;;;;;;39.50;30.97;;;3.10;99.10;;;;;;5108711;28;20952;-79
2021/01/21 02:01:00;;;;;;;37.83;28.25;;;3.20;98.90;;;;;;5105877;28;20176;-79
2021/01/21 02:03:25;;;;;;;39.67;28.80;;;3.10;99.00;;;;;;5109918;28;20171;-79
2021/01/21 02:05:52;;;;;;;35.73;29.70;;;3.20;98.90;;;;;;5107321;28;20632;-79
2021/01/21 02:08:22;;;;;;;38.55;31.25;;;3.30;98.90;;;;;;5107276;28;20187;-79
2021/01/21 02:10:48;;;;;;;38.53;30.65;;;3.30;98.60;;;;;;5107939;28;20718;-79
2021/01/21 02:13:27;;;;;;;39.37;31.83;;;3.40;98.40;;;;;;5107550;28;20266;-79
2021/01/21 02:16:03;;;;;;;42.63;30.73;;;3.40;98.50;;;;;;5106734;28;20405;-79
2021/01/21 02:18:41;;;;;;;43.55;30.70;;;3.40;98.50;;;;;;5107851;28;20236;-79
2021/01/21 02:21:44;;;;;;;40.00;31.75;;;3.30;98.60;;;;;;5107825;28;20176;-79
2021/01/21 02:24:13;;;;;;;40.92;31.42;;;3.30;98.60;;;;;;5105481;28;20179;-79
2021/01/21 02:26:44;;;;;;;42.80;32.63;;;3.30;98.70;;;;;;5107323;28;20521;-79
2021/01/21 02:29:12;;;;;;;43.42;33.20;;;3.30;98.90;;;;;;5107739;28;20195;-78
2021/01/21 02:32:07;;;;;;;39.90;31.60;;;3.30;99.00;;;;;;5107736;28;20720;-79
2021/01/21 02:34:39;;;;;;;42.80;35.80;;;3.10;99.40;;;;;;5107324;28;20172;-79
2021/01/21 02:37:14;;;;;;;42.20;32.53;;;3.10;99.70;;;;;;5106382;28;20188;-78
2021/01/21 02:39:44;;;;;;;46.38;31.38;;;3.10;99.50;;;;;;5107005;28;20175;-79
2021/01/21 02:42:09;;;;;;;47.15;35.47;;;3.00;99.60;;;;;;5106884;28;20211;-79
2021/01/21 02:44:35;;;;;;;45.00;30.77;;;3.00;99.60;;;;;;5106594;28;20222;-79
2021/01/21 02:47:01;;;;;;;46.53;34.57;;;2.90;99.80;;;;;;5106351;28;20917;-79
2021/01/21 02:49:27;;;;;;;42.55;32.45;;;3.00;99.80;;;;;;5107252;28;20172;-79
2021/01/21 02:52:18;;;;;;;47.60;34.23;;;2.90;99.90;;;;;;5105781;28;20195;-79
2021/01/21 02:54:56;;;;;;;44.65;33.00;;;3.00;99.80;;;;;;5104894;28;20604;-79
2021/01/21 02:57:23;;;;;;;40.55;33.60;;;3.00;99.70;;;;;;5105919;28;20219;-79
2021/01/21 02:59:52;;;;;;;42.35;34.47;;;3.00;99.80;;;;;;5107572;28;20695;-79
2021/01/21 03:02:20;;;;;;;42.25;34.55;;;3.10;99.70;;;;;;5108336;28;20607;-79
2021/01/21 03:04:46;;;;;;;42.28;33.97;;;3.10;99.60;;;;;;5108140;28;20176;-79
2021/01/21 03:07:14;;;;;;;40.40;32.03;;;3.10;99.60;;;;;;5108388;28;20632;-79
2021/01/21 03:09:44;;;;;;;39.78;34.97;;;3.20;99.30;;;;;;5111831;28;20180;-79
2021/01/21 03:12:26;;;;;;;41.50;32.55;;;3.20;99.20;;;;;;5112220;28;20258;-79
2021/01/21 03:14:54;;;;;;;44.58;34.40;;;3.20;99.40;;;;;;5110861;28;20223;-79
2021/01/21 03:17:24;;;;;;;41.38;34.88;;;3.00;99.60;;;;;;5111352;28;20204;-79
2021/01/21 03:19:51;;;;;;;45.40;35.25;;;3.10;99.50;;;;;;5111910;28;20617;-79
2021/01/21 03:22:17;;;;;;;49.15;41.13;;;3.10;99.40;;;;;;5111117;28;20176;-79
2021/01/21 03:24:43;;;;;;;46.83;39.53;;;2.90;99.90;;;;;;5111678;28;20254;-79
2021/01/21 03:27:09;;;;;;;45.30;35.23;;;2.90;99.80;;;;;;5110760;28;20283;-79
2021/01/21 03:29:35;;;;;;;42.67;33.03;;;2.80;99.80;;;;;;5109194;28;20206;-80
2021/01/21 03:32:00;;;;;;;40.90;33.77;;;2.90;99.70;;;;;;5109232;28;20172;-79
2021/01/21 03:34:26;;;;;;;49.73;36.90;;;2.70;99.90;;;;;;5109365;28;20383;-79
2021/01/21 03:36:51;;;;;;;46.43;40.20;;;2.60;99.90;;;;;;5110929;28;20175;-79
2021/01/21 03:39:17;;;;;;;56.00;40.53;;;2.70;99.90;;;;;;5111392;28;20597;-79
2021/01/21 03:41:43;;;;;;;63.87;42.77;;;2.90;99.80;;;;;;5109653;28;20542;-78
2021/01/21 03:44:09;;;;;;;54.97;40.37;;;2.90;99.80;;;;;;5109672;28;20387;-80
2021/01/21 03:46:35;;;;;;;53.78;39.55;;;2.90;99.70;;;;;;5107915;28;20229;-79
2021/01/21 03:49:01;;;;;;;50.47;37.57;;;2.90;99.60;;;;;;5110993;28;20179;-79
2021/01/21 03:51:27;;;;;;;48.53;39.90;;;2.90;99.40;;;;;;5111358;28;20800;-79
2021/01/21 03:53:52;;;;;;;46.20;40.50;;;2.90;99.40;;;;;;5111380;28;20419;-79
2021/01/21 03:56:18;;;;;;;46.50;38.13;;;2.80;99.60;;;;;;5111290;28;20746;-79
2021/01/21 03:58:44;;;;;;;53.20;39.90;;;2.90;99.50;;;;;;5110880;28;20215;-79
2021/01/21 04:01:09;;;;;;;57.40;43.67;;;2.80;99.50;;;;;;5108903;28;20188;-79
2021/01/21 04:03:35;;;;;;;60.17;42.20;;;2.70;99.80;;;;;;5109401;28;20961;-79
2021/01/21 04:06:01;;;;;;;58.27;41.07;;;2.70;99.80;;;;;;5110403;28;20171;-79
2021/01/21 04:08:27;;;;;;;54.10;38.57;;;2.70;99.70;;;;;;5110284;28;20763;-79
2021/01/21 04:10:53;;;;;;;57.50;41.88;;;2.70;99.60;;;;;;5109526;28;20308;-78
2021/01/21 04:13:19;;;;;;;57.53;41.97;;;2.60;99.90;;;;;;5110661;28;20651;-79
2021/01/21 04:15:46;;;;;;;52.50;44.30;;;2.60;99.90;;;;;;5111083;28;20420;-79
2021/01/21 04:18:12;;;;;;;53.72;40.47;;;2.60;99.80;;;;;;5109916;28;20464;-79
2021/01/21 04:20:38;;;;;;;53.92;41.15;;;2.70;99.80;;;;;;5109152;28;20184;-79
2021/01/21 04:23:04;;;;;;;55.00;46.55;;;2.70;99.60;;;;;;5109410;28;20180;-79
2021/01/21 04:25:30;;;;;;;51.43;42.43;;;2.60;99.90;;;;;;5109943;28;20220;-79
2021/01/21 04:27:55;;;;;;;58.37;43.17;;;2.60;99.90;;;;;;5108878;28;20183;-79
2021/01/21 04:30:21;;;;;;;54.80;41.10;;;2.50;99.90;;;;;;5109312;28;20179;-79
2021/01/21 04:32:47;;;;;;;49.53;41.50;;;2.50;99.90;;;;;;5109634;28;20707;-78
2021/01/21 04:35:13;;;;;;;53.40;42.40;;;2.60;99.90;;;;;;5107959;28;20412;-79
2021/01/21 04:37:38;;;;;;;53.93;41.47;;;2.50;99.90;;;;;;5110531;28;20231;-79
2021/01/21 04:40:05;;;;;;;51.47;39.87;;;2.60;99.90;;;;;;5109154;28;20180;-79
2021/01/21 04:42:31;;;;;;;45.47;38.88;;;2.60;99.80;;;;;;5106844;28;20270;-79
2021/01/21 04:44:57;;;;;;;52.30;43.13;;;2.50;99.90;;;;;;5109960;28;20255;-79
2021/01/21 04:47:25;;;;;;;52.03;41.57;;;2.60;99.90;;;;;;5108350;28;20822;-79
2021/01/21 04:49:53;;;;;;;51.22;40.90;;;2.50;99.90;;;;;;5110295;28;20499;-79
2021/01/21 04:52:21;;;;;;;52.10;39.40;;;2.50;99.90;;;;;;5107860;28;20198;-79
2021/01/21 04:54:57;;;;;;;49.80;37.67;;;2.50;99.90;;;;;;5107990;28;20318;-79
2021/01/21 04:57:39;;;;;;;53.65;38.35;;;2.60;99.90;;;;;;5108807;28;20211;-79
2021/01/21 05:00:06;;;;;;;52.67;39.55;;;2.60;99.90;;;;;;5107788;28;20176;-79
2021/01/21 05:02:33;;;;;;;52.90;39.97;;;2.70;99.70;;;;;;5108664;28;20180;-79
2021/01/21 05:04:59;;;;;;;48.92;42.00;;;2.60;99.90;;;;;;5108585;28;20179;-79
2021/01/21 05:07:26;;;;;;;50.30;37.15;;;2.70;99.70;;;;;;5107997;28;20636;-79
2021/01/21 05:09:52;;;;;;;51.88;37.47;;;2.70;99.50;;;;;;5106949;28;20304;-79
2021/01/21 05:12:18;;;;;;;51.10;36.90;;;2.80;99.50;;;;;;5106499;28;20188;-79
2021/01/21 05:14:43;;;;;;;49.10;37.23;;;2.80;99.30;;;;;;5106771;28;20229;-79
2021/01/21 05:17:09;;;;;;;50.47;42.03;;;2.70;99.60;;;;;;5109356;28;20591;-79
2021/01/21 05:19:35;;;;;;;50.78;37.67;;;2.60;99.70;;;;;;5109089;28;20167;-79
2021/01/21 05:22:01;;;;;;;56.30;39.77;;;2.70;99.70;;;;;;5109467;28;20597;-79
2021/01/21 05:24:27;;;;;;;50.00;41.60;;;2.70;99.60;;;;;;5108314;28;20412;-79
2021/01/21 05:26:54;;;;;;;53.10;38.77;;;2.60;99.90;;;;;;5108893;28;20210;-79
2021/01/21 05:29:20;;;;;;;52.13;38.13;;;2.70;99.80;;;;;;5110047;28;20415;-79
2021/01/21 05:31:48;;;;;;;53.97;47.70;;;2.70;99.70;;;;;;5109622;27;20676;-79
2021/01/21 05:34:17;;;;;;;51.10;37.75;;;2.70;99.90;;;;;;5108940;28;20236;-79
2021/01/21 05:36:44;;;;;;;49.63;34.50;;;2.50;99.90;;;;;;5107191;28;20176;-79
2021/01/21 05:39:10;;;;;;;47.03;33.63;;;2.40;99.90;;;;;;5106552;28;20306;-79
2021/01/21 05:41:37;;;;;;;47.05;30.80;;;2.40;99.90;;;;;;5106298;28;20179;-78
2021/01/21 05:44:05;;;;;;;52.60;35.90;;;2.40;99.90;;;;;;5107935;28;20680;-78
2021/01/21 05:46:31;;;;;;;52.25;41.55;;;2.40;99.90;;;;;;5106634;28;20219;-79
2021/01/21 05:48:58;;;;;;;53.28;41.42;;;2.40;99.90;;;;;;5108641;28;20241;-78
2021/01/21 05:51:24;;;;;;;52.20;38.00;;;2.70;99.70;;;;;;5108446;28;20270;-79
2021/01/21 05:53:53;;;;;;;53.10;41.65;;;2.80;99.50;;;;;;5108258;28;20180;-79
2021/01/21 05:56:21;;;;;;;51.10;38.15;;;2.80;99.60;;;;;;5108774;28;20280;-79
2021/01/21 05:58:50;;;;;;;53.05;42.83;;;2.80;99.20;;;;;;5107205;28;20562;-79
2021/01/21 06:01:16;;;;;;;55.70;46.47;;;3.00;99.00;;;;;;5107323;28;20183;-79
2021/01/21 06:03:41;;;;;;;57.27;40.23;;;3.00;98.90;;;;;;5108976;28;20536;-79
2021/01/21 06:06:08;;;;;;;48.90;40.30;;;2.90;99.10;;;;;;5108140;28;20916;-79
2021/01/21 06:08:39;;;;;;;46.75;38.78;;;2.80;99.40;;;;;;5108455;28;20193;-79
2021/01/21 06:11:09;;;;;;;51.67;40.60;;;2.70;99.70;;;;;;5107484;28;20203;-79
2021/01/21 06:13:43;;;;;;;53.97;41.00;;;2.90;99.40;;;;;;5104361;28;20191;-79
2021/01/21 06:16:10;;;;;;;46.90;32.75;;;2.90;99.50;;;;;;5108326;28;20201;-79
2021/01/21 06:18:36;;;;;;;44.92;34.97;;;2.90;99.50;;;;;;5108267;28;20211;-79
2021/01/21 06:21:03;;;;;;;40.05;30.90;;;2.80;99.60;;;;;;5106246;28;20549;-79
2021/01/21 06:23:33;;;;;;;50.67;34.70;;;2.80;99.70;;;;;;5107949;28;20191;-79
2021/01/21 06:25:59;;;;;;;45.85;36.80;;;2.90;99.60;;;;;;5109517;28;20305;-78
2021/01/21 06:28:26;;;;;;;51.42;37.78;;;2.80;99.70;;;;;;5106276;28;20184;-79
2021/01/21 06:30:55;;;;;;;57.22;47.30;;;2.80;99.90;;;;;;5108196;28;20183;-79
2021/01/21 06:33:25;;;;;;;58.28;42.97;;;2.90;99.90;;;;;;5108231;28;20640;-79
2021/01/21 06:35:59;;;;;;;78.18;50.08;;;2.90;99.90;;;;;;5106988;28;20711;-79
2021/01/21 06:38:31;;;;;;;98.10;55.53;;;2.80;99.90;;;;;;5102761;28;20207;-80
2021/01/21 06:41:01;;;;;;;85.80;51.95;;;2.80;99.90;;;;;;5086727;28;20175;-79
2021/01/21 06:43:36;;;;;;;57.50;40.35;;;2.80;99.90;;;;;;5089949;28;20259;-79
2021/01/21 06:46:02;;;;;;;52.90;41.35;;;2.80;99.90;;;;;;5091451;28;20176;-79
2021/01/21 06:48:28;;;;;;;55.65;42.17;;;2.80;99.90;;;;;;5092303;28;20637;-79
2021/01/21 06:50:55;;;;;;;45.00;35.63;;;2.90;99.90;;;;;;5090649;28;20184;-78
2021/01/21 06:53:22;;;;;;;42.78;32.80;;;2.80;99.90;;;;;;5089954;28;20462;-78
2021/01/21 06:55:50;;;;;;;42.42;34.65;;;2.90;99.90;;;;;;5090750;28;20430;-78
2021/01/21 06:58:47;;;;;;;40.53;31.50;;;2.90;99.90;;;;;;5091190;28;20215;-78
2021/01/21 07:01:31;;;;;;;43.15;31.30;;;3.00;99.90;;;;;;5090225;28;20229;-78
2021/01/21 07:04:25;;;;;;;39.92;28.55;;;3.00;99.90;;;;;;5088295;28;20192;-78
2021/01/21 07:06:54;;;;;;;43.80;33.10;;;3.00;99.90;;;;;;5088260;28;20752;-78
2021/01/21 07:09:31;;;;;;;45.80;32.33;;;3.20;99.80;;;;;;5091379;28;20176;-79
2021/01/21 07:12:00;;;;;;;41.28;30.77;;;3.20;99.60;;;;;;5089026;28;20176;-78
2021/01/21 07:14:31;;;;;;;38.58;29.40;;;3.10;99.80;;;;;;5089380;28;20184;-79
2021/01/21 07:17:05;;;;;;;42.60;33.10;;;3.30;99.60;;;;;;5091272;28;20600;-79
2021/01/21 07:19:39;;;;;;;41.45;30.70;;;3.40;99.20;;;;;;5089343;28;20171;-79
2021/01/21 07:22:17;;;;;;;38.60;31.85;;;3.50;99.20;;;;;;5090522;28;20168;-79
2021/01/21 07:24:55;;;;;;;42.58;32.63;;;3.50;99.10;;;;;;5090513;28;20165;-79
2021/01/21 07:27:24;;;;;;;43.90;33.92;;;3.80;98.50;;;;;;5104342;28;20188;-78
2021/01/21 07:29:49;;;;;;;39.33;30.35;;;3.90;98.50;;;;;;5089363;28;20181;-79
2021/01/21 07:32:26;;;;;;;37.03;31.90;;;4.00;98.10;;;;;;5104719;28;20229;-79
2021/01/21 07:34:51;;;;;;;34.85;28.25;;;4.20;97.80;;;;;;5109348;28;20419;-78
2021/01/21 07:37:23;;;;;;;38.13;31.20;;;4.20;97.90;;;;;;5107530;28;20168;-78
2021/01/21 07:40:03;;;;;;;40.55;31.25;;;4.20;97.60;;;;;;5106767;28;20183;-78
2021/01/21 07:42:50;;;;;;;39.00;31.38;;;4.40;97.40;;;;;;5108913;28;20545;-78
2021/01/21 07:45:16;;;;;;;44.85;31.80;;;4.20;97.50;;;;;;5089775;28;20621;-79
2021/01/21 07:47:46;;;;;;;43.28;32.30;;;4.30;97.50;;;;;;5089124;28;20269;-78
2021/01/21 07:50:29;;;;;;;38.78;30.85;;;4.40;97.30;;;;;;5088736;28;20652;-78
2021/01/21 07:52:57;;;;;;;39.03;28.38;;;4.50;97.20;;;;;;5087813;28;20624;-79
2021/01/21 07:55:38;;;;;;;36.33;29.33;;;4.70;97.00;;;;;;5103888;28;20282;-79
2021/01/21 07:58:22;;;;;;;40.20;32.60;;;4.90;96.70;;;;;;5106533;27;20199;-80
2021/01/21 08:00:50;;;;;;;37.90;29.35;;;5.10;96.10;;;;;;5100556;28;20192;-79
2021/01/21 08:03:30;;;;;;;36.30;29.85;;;5.40;95.30;;;;;;5099015;27;20287;-79
2021/01/21 08:06:07;;;;;;;30.95;23.25;;;5.50;95.20;;;;;;5109301;27;20179;-79
2021/01/21 08:08:33;;;;;;;34.75;30.45;;;5.60;95.30;;;;;;5098025;28;20735;-78
2021/01/21 08:11:04;;;;;;;35.35;30.75;;;5.90;94.60;;;;;;5099559;28;20275;-78
2021/01/21 08:13:30;;;;;;;34.92;28.05;;;6.10;94.20;;;;;;5101814;27;20179;-79
2021/01/21 08:15:56;;;;;;;41.13;28.55;;;6.60;93.40;;;;;;5108139;27;20192;-80
2021/01/21 08:18:22;;;;;;;44.03;32.00;;;6.70;92.70;;;;;;5110013;27;20572;-79
2021/01/21 08:20:49;;;;;;;48.13;35.70;;;7.40;91.50;;;;;;5103872;28;20191;-79
2021/01/21 08:23:16;;;;;;;55.10;37.25;;;7.70;90.80;;;;;;5098730;27;20188;-80
2021/01/21 08:25:45;;;;;;;50.80;35.15;;;8.20;90.80;;;;;;5094182;27;20209;-79
2021/01/21 08:28:17;;;;;;;32.03;26.85;;;8.30;90.00;;;;;;5100007;28;20208;-79
2021/01/21 08:30:44;;;;;;;31.02;25.73;;;9.00;85.60;;;;;;5104195;27;20230;-79
2021/01/21 08:33:24;;;;;;;31.17;27.88;;;9.20;83.10;;;;;;5095919;28;20210;-79
2021/01/21 08:35:54;;;;;;;35.80;29.77;;;8.90;84.90;;;;;;5102677;28;21016;-80
2021/01/21 08:38:26;;;;;;;29.75;25.20;;;8.80;85.50;;;;;;5103893;28;20199;-79
2021/01/21 08:40:53;;;;;;;31.60;27.13;;;8.80;85.60;;;;;;5094300;28;20265;-79
2021/01/21 08:43:20;;;;;;;29.75;24.67;;;8.70;87.10;;;;;;5099597;28;20228;-80
2021/01/21 08:45:46;;;;;;;34.42;24.27;;;8.10;88.40;;;;;;5096015;28;20192;-79
2021/01/21 08:48:31;;;;;;;30.98;25.35;;;8.00;90.00;;;;;;5092492;28;20187;-80
2021/01/21 08:50:57;;;;;;;27.63;23.67;;;8.80;87.30;;;;;;5107183;28;20237;-80
2021/01/21 08:53:24;;;;;;;29.50;25.02;;;8.00;89.00;;;;;;5098850;28;20194;-79
2021/01/21 08:55:52;;;;;;;29.92;25.08;;;8.50;88.70;;;;;;5097760;28;20232;-79
2021/01/21 08:58:20;;;;;;;29.40;26.30;;;8.20;89.50;;;;;;5101691;28;20282;-79
2021/01/21 09:01:12;;;;;;;28.60;25.52;;;8.00;90.00;;;;;;5099982;28;20220;-80
2021/01/21 09:03:53;;;;;;;30.33;26.65;;;7.70;90.70;;;;;;5098373;28;20221;-79
2021/01/21 09:06:22;;;;;;;30.63;25.75;;;7.60;91.60;;;;;;5107483;27;20239;-79
2021/01/21 09:08:54;;;;;;;28.35;24.65;;;7.80;90.90;;;;;;5104666;28;20180;-78
2021/01/21 09:11:39;;;;;;;27.17;23.40;;;7.70;91.20;;;;;;5103246;28;20179;-78
2021/01/21 09:14:07;;;;;;;27.65;24.63;;;7.60;91.70;;;;;;5097923;28;20517;-79
2021/01/21 09:16:47;;;;;;;24.27;21.90;;;7.90;91.30;;;;;;5093761;28;20307;-79
2021/01/21 09:19:15;;;;;;;25.38;18.30;;;8.10;90.60;;;;;;5105347;27;20648;-79
2021/01/21 09:22:07;;;;;;;25.77;21.50;;;8.20;90.30;;;;;;5106694;27;20961;-78
2021/01/21 09:24:53;;;;;;;24.63;21.73;;;8.70;90.10;;;;;;5105946;28;20306;-80
2021/01/21 09:27:18;;;;;;;22.80;20.15;;;8.80;88.60;;;;;;5105546;28;21152;-78
2021/01/21 09:29:55;;;;;;;22.43;20.10;;;9.50;85.80;;;;;;5102484;27;20549;-78
2021/01/21 09:32:35;;;;;;;23.08;20.65;;;9.50;86.10;;;;;;5114808;27;20172;-78
2021/01/21 09:35:18;;;;;;;19.35;16.15;;;9.80;84.40;;;;;;5102702;28;20267;-79
2021/01/21 09:37:50;;;;;;;23.30;18.50;;;9.10;86.10;;;;;;5091942;28;20569;-78
2021/01/21 09:40:28;;;;;;;21.20;19.00;;;9.70;85.40;;;;;;5087750;28;20263;-79
2021/01/21 09:43:04;;;;;;;22.63;20.43;;;10.40;81.60;;;;;;5092711;28;20431;-79
2021/01/21 09:45:31;;;;;;;23.33;20.97;;;10.60;79.60;;;;;;5094668;28;20989;-78
2021/01/21 09:47:57;;;;;;;21.70;19.40;;;10.80;78.40;;;;;;5093144;28;20445;-79
2021/01/21 09:50:24;;;;;;;19.37;17.30;;;11.00;77.60;;;;;;5106493;28;20416;-79
2021/01/21 09:52:50;;;;;;;16.63;14.83;;;10.90;80.60;;;;;;5105633;28;20431;-79
2021/01/21 09:55:17;;;;;;;20.90;17.93;;;11.00;77.80;;;;;;5100943;28;20677;-79
2021/01/21 09:57:42;;;;;;;19.07;16.70;;;11.00;78.70;;;;;;5103881;28;20624;-79
2021/01/21 10:00:10;;;;;;;18.53;16.73;;;11.80;75.00;;;;;;5101913;28;20506;-79
2021/01/21 10:02:36;;;;;;;19.93;16.73;;;11.80;74.20;;;;;;5088817;28;20547;-79
2021/01/21 10:05:03;;;;;;;18.37;16.33;;;11.10;75.80;;;;;;5103491;28;20432;-79
2021/01/21 10:07:28;;;;;;;17.30;15.47;;;10.50;81.10;;;;;;5100765;28;20184;-80
2021/01/21 10:09:54;;;;;;;18.73;15.63;;;11.40;76.60;;;;;;5092589;28;20412;-79
2021/01/21 10:12:20;;;;;;;17.03;15.33;;;11.60;76.60;;;;;;5102346;28;20176;-79
2021/01/21 10:14:45;;;;;;;19.37;16.10;;;11.50;76.20;;;;;;5105286;28;20423;-80
2021/01/21 10:17:11;;;;;;;19.10;17.10;;;10.30;81.30;;;;;;5087370;28;20718;-79
2021/01/21 10:19:37;;;;;;;16.10;14.50;;;10.80;80.40;;;;;;5116121;27;20206;-79
2021/01/21 10:22:07;;;;;;;19.13;15.60;;;11.20;77.90;;;;;;5089031;28;20547;-80
2021/01/21 10:24:33;;;;;;;18.50;16.60;;;10.90;80.40;;;;;;5091896;28;20506;-79
2021/01/21 10:26:59;;;;;;;20.83;16.50;;;11.60;79.30;;;;;;5105882;27;20446;-79
2021/01/21 10:29:24;;;;;;;20.40;18.23;;;11.90;76.80;;;;;;5109854;28;20911;-80
2021/01/21 10:31:50;;;;;;;21.70;17.83;;;12.20;76.00;;;;;;5096388;27;20179;-79
2021/01/21 10:34:16;;;;;;;16.30;14.00;;;11.90;76.60;;;;;;5118157;27;20183;-80
2021/01/21 10:36:42;;;;;;;16.67;14.23;;;11.60;76.80;;;;;;5115549;27;20179;-79
2021/01/21 10:39:08;;;;;;;18.77;16.77;;;12.10;76.60;;;;;;5111173;27;20452;-79
2021/01/21 10:41:33;;;;;;;17.53;14.50;;;12.30;73.80;;;;;;5124596;27;20264;-79
2021/01/21 10:43:59;;;;;;;19.03;17.17;;;12.00;76.80;;;;;;5113747;27;20561;-79
2021/01/21 10:46:25;;;;;;;18.47;15.70;;;12.30;75.00;;;;;;5102613;28;20180;-79
2021/01/21 10:48:51;;;;;;;16.13;14.10;;;12.60;73.60;;;;;;5111642;28;20442;-80
2021/01/21 10:51:17;;;;;;;17.20;12.50;;;12.40;73.50;;;;;;5109752;28;20180;-80
2021/01/21 10:53:42;;;;;;;16.10;14.40;;;12.30;75.20;;;;;;5114505;28;20187;-80
2021/01/21 10:56:08;;;;;;;19.20;14.60;;;12.60;74.60;;;;;;5113683;28;21008;-80
2021/01/21 10:58:34;;;;;;;17.10;15.30;;;12.50;75.10;;;;;;5112692;28;21160;-79
2021/01/21 11:01:00;;;;;;;17.57;14.67;;;12.60;74.60;;;;;;5100229;28;20180;-79
2021/01/21 11:03:25;;;;;;;14.03;12.50;;;12.30;76.80;;;;;;5104569;27;20300;-79
2021/01/21 11:05:51;;;;;;;13.10;11.80;;;12.10;77.40;;;;;;5110050;27;20424;-79
2021/01/21 11:08:17;;;;;;;15.97;13.97;;;12.80;73.70;;;;;;5104808;28;20225;-79
2021/01/21 11:10:44;;;;;;;13.67;12.20;;;12.50;74.20;;;;;;5108175;27;20266;-79
2021/01/21 11:13:17;;;;;;;13.93;12.40;;;12.60;74.70;;;;;;5116969;27;20431;-79
2021/01/21 11:15:43;;;;;;;14.47;13.13;;;12.60;73.80;;;;;;5113931;28;21002;-79
2021/01/21 11:18:09;;;;;;;14.30;12.80;;;12.20;75.10;;;;;;5103449;28;20518;-78
2021/01/21 11:20:35;;;;;;;15.43;12.23;;;12.30;75.00;;;;;;5106594;28;20413;-79
2021/01/21 11:23:01;;;;;;;11.20;10.00;;;12.30;74.80;;;;;;5105461;28;20833;-79
2021/01/21 11:25:27;;;;;;;13.37;11.83;;;12.10;76.10;;;;;;5106623;28;20225;-79
2021/01/21 11:27:53;;;;;;;13.50;12.13;;;12.10;76.00;;;;;;5109165;28;20436;-79
2021/01/21 11:30:19;;;;;;;15.20;13.70;;;12.00;78.50;;;;;;5112600;28;20790;-79
2021/01/21 11:32:45;;;;;;;13.40;9.80;;;12.20;76.90;;;;;;5109078;28;20459;-79
2021/01/21 11:35:11;;;;;;;16.37;14.67;;;12.00;78.00;;;;;;5111964;27;20452;-79
2021/01/21 11:37:37;;;;;;;16.53;14.90;;;12.10;78.10;;;;;;5107476;28;20216;-79
2021/01/21 11:40:04;;;;;;;19.13;16.40;;;12.20;77.10;;;;;;5104653;28;20417;-79
2021/01/21 11:42:30;;;;;;;15.27;12.90;;;12.40;77.50;;;;;;5108618;28;20416;-80
2021/01/21 11:44:55;;;;;;;21.10;16.90;;;12.40;77.60;;;;;;5109699;28;20546;-79
2021/01/21 11:47:21;;;;;;;20.07;16.13;;;12.40;78.00;;;;;;5108128;28;20180;-79
2021/01/21 11:49:47;;;;;;;16.43;14.50;;;12.70;78.80;;;;;;5103742;28;20173;-79
2021/01/21 11:52:13;;;;;;;17.47;15.77;;;12.50;78.30;;;;;;5108667;28;20488;-79
2021/01/21 11:54:39;;;;;;;18.90;16.20;;;12.20;80.20;;;;;;5101823;28;20602;-79
2021/01/21 11:57:05;;;;;;;23.40;17.10;;;12.40;78.50;;;;;;5112213;28;20176;-79
2021/01/21 11:59:30;;;;;;;18.90;15.67;;;12.70;77.10;;;;;;5110993;28;20725;-79
2021/01/21 12:01:56;;;;;;;19.10;16.53;;;12.80;76.90;;;;;;5105427;28;20220;-79
2021/01/21 12:04:22;;;;;;;22.53;15.20;;;12.60;77.40;;;;;;5094375;28;20750;-79
2021/01/21 12:06:48;;;;;;;16.20;12.83;;;12.60;78.10;;;;;;5103493;28;20656;-79
2021/01/21 12:09:14;;;;;;;13.30;9.50;;;12.30;80.30;;;;;;5092627;28;20172;-79
2021/01/21 12:11:39;;;;;;;21.63;14.27;;;12.30;81.10;;;;;;5103442;28;20489;-79
2021/01/21 12:14:05;;;;;;;18.50;12.87;;;12.60;80.00;;;;;;5094062;28;20212;-79
2021/01/21 12:16:31;;;;;;;16.87;14.67;;;12.50;80.20;;;;;;5101969;28;20183;-79
2021/01/21 12:18:57;;;;;;;25.50;20.00;;;12.10;82.60;;;;;;5096003;28;20877;-79
2021/01/21 12:21:23;;;;;;;40.30;25.40;;;12.20;82.30;;;;;;5089782;28;20215;-79
2021/01/21 12:23:49;;;;;;;21.67;19.40;;;12.30;82.00;;;;;;5102506;28;20195;-79
2021/01/21 12:26:16;;;;;;;15.77;12.50;;;12.20;81.80;;;;;;5103334;28;20934;-79
2021/01/21 12:28:41;;;;;;;19.13;17.13;;;12.20;82.10;;;;;;5105998;28;20449;-78
2021/01/21 12:31:07;;;;;;;27.17;24.33;;;12.40;82.30;;;;;;5100404;28;20420;-79
2021/01/21 12:33:33;;;;;;;16.33;14.17;;;12.00;85.00;;;;;;5100245;28;20439;-78
2021/01/21 12:36:00;;;;;;;17.17;15.37;;;11.90;84.80;;;;;;5100373;28;20671;-79
2021/01/21 12:38:25;;;;;;;21.40;19.10;;;11.80;85.70;;;;;;5100869;28;20457;-78
2021/01/21 12:40:52;;;;;;;14.60;12.80;;;11.90;86.60;;;;;;5098887;28;20420;-78
2021/01/21 12:43:18;;;;;;;20.80;18.90;;;12.00;85.70;;;;;;5099094;28;20214;-78